Time;durP1;ratioP1;P1;durP2;ratioP2;P2;SDS_P1;SDS_P2;PMS_P1;PMS_P2;Temp;Humidity;BMP_temperature;BMP_pressure;BME280_temperature;BME280_humidity;BME280_pressure;Samples;Min_cycle;Max_cycle;Signal;HPM_P1;HPM_P2
2023/06/25 00:00:19;;;;;;;29.80;17.23;;;;;;;17.82;100.00;101843.31;5075622;28;20020;-80
2023/06/25 00:02:45;;;;;;;27.40;16.02;;;;;;;17.80;100.00;101844.44;5056307;28;20124;-80
2023/06/25 00:05:10;;;;;;;26.35;15.88;;;;;;;17.79;100.00;101838.16;5075443;28;20519;-81
2023/06/25 00:07:36;;;;;;;26.63;16.38;;;;;;;17.79;100.00;101837.28;5082097;28;20031;-81
2023/06/25 00:10:02;;;;;;;28.33;17.20;;;;;;;17.75;100.00;101833.97;5074099;28;20033;-80
2023/06/25 00:12:27;;;;;;;28.25;16.45;;;;;;;17.73;100.00;101832.38;5078824;28;20029;-80
2023/06/25 00:14:53;;;;;;;28.02;16.92;;;;;;;17.70;100.00;101832.66;5079699;28;20035;-81
2023/06/25 00:17:19;;;;;;;28.35;17.15;;;;;;;17.67;100.00;101831.06;5060318;28;20083;-80
2023/06/25 00:19:45;;;;;;;28.10;16.88;;;;;;;17.64;100.00;101834.94;5075762;28;20396;-81
2023/06/25 00:22:11;;;;;;;29.05;17.08;;;;;;;17.62;100.00;101830.59;5066625;28;20043;-81
2023/06/25 00:24:37;;;;;;;29.52;17.30;;;;;;;17.61;100.00;101837.03;5075469;28;20492;-81
2023/06/25 00:27:03;;;;;;;28.67;16.55;;;;;;;17.60;100.00;101829.88;5074635;28;20032;-80
2023/06/25 00:29:28;;;;;;;30.35;18.23;;;;;;;17.57;100.00;101832.84;5063789;28;20032;-80
2023/06/25 00:31:54;;;;;;;28.58;16.90;;;;;;;17.57;100.00;101827.41;5083110;28;20103;-80
2023/06/25 00:34:19;;;;;;;28.33;16.92;;;;;;;17.53;100.00;101821.41;5082025;28;20108;-80
2023/06/25 00:36:45;;;;;;;28.48;16.98;;;;;;;17.52;100.00;101821.53;5057710;28;20024;-80
2023/06/25 00:39:11;;;;;;;29.05;17.23;;;;;;;17.53;100.00;101815.13;5076604;28;20039;-80
2023/06/25 00:41:39;;;;;;;27.00;16.67;;;;;;;17.49;100.00;101816.38;5056399;28;20531;-81
2023/06/25 00:44:06;;;;;;;28.67;17.27;;;;;;;17.47;100.00;101811.06;5083301;28;20024;-80
2023/06/25 00:46:31;;;;;;;27.30;17.25;;;;;;;17.44;100.00;101806.75;5080213;28;20047;-80
2023/06/25 00:48:57;;;;;;;28.35;17.40;;;;;;;17.44;100.00;101814.06;5061597;28;20028;-80
2023/06/25 00:51:27;;;;;;;29.17;17.35;;;;;;;17.41;100.00;101807.03;5077731;28;20024;-80
2023/06/25 00:53:52;;;;;;;27.25;17.45;;;;;;;17.41;100.00;101812.47;5055675;28;20111;-81
2023/06/25 00:56:28;;;;;;;27.08;16.40;;;;;;;17.37;100.00;101813.72;5060436;28;20111;-80
2023/06/25 00:59:00;;;;;;;29.38;17.35;;;;;;;17.31;100.00;101800.69;5073070;28;20020;-80
2023/06/25 01:01:33;;;;;;;30.40;18.27;;;;;;;17.32;100.00;101805.13;5081293;28;20032;-80
2023/06/25 01:04:06;;;;;;;28.77;17.05;;;;;;;17.29;100.00;101800.81;5079614;28;20249;-80
2023/06/25 01:06:40;;;;;;;27.30;18.15;;;;;;;17.27;100.00;101801.94;5072557;28;20024;-80
2023/06/25 01:09:08;;;;;;;27.65;17.02;;;;;;;17.24;100.00;101797.63;5063053;28;20078;-80
2023/06/25 01:11:33;;;;;;;27.45;17.83;;;;;;;17.20;100.00;101793.44;5078003;28;20419;-80
2023/06/25 01:13:58;;;;;;;27.27;18.02;;;;;;;17.19;100.00;101790.88;5080442;28;20084;-80
2023/06/25 01:16:24;;;;;;;30.30;19.08;;;;;;;17.14;100.00;101791.25;5063158;28;20016;-80
2023/06/25 01:18:50;;;;;;;27.05;17.45;;;;;;;17.12;100.00;101795.97;5058093;28;20491;-80
2023/06/25 01:21:22;;;;;;;26.48;16.83;;;;;;;17.10;100.00;101792.50;5076404;28;20021;-80
2023/06/25 01:23:47;;;;;;;27.70;16.63;;;;;;;17.09;100.00;101797.09;5070955;28;20115;-80
2023/06/25 01:26:13;;;;;;;27.27;16.92;;;;;;;17.08;100.00;101778.22;5079188;28;20027;-81
2023/06/25 01:28:38;;;;;;;26.85;17.23;;;;;;;17.07;100.00;101784.63;5082821;28;20504;-80
2023/06/25 01:31:04;;;;;;;27.55;17.10;;;;;;;17.04;100.00;101777.63;5082714;28;20025;-80
2023/06/25 01:33:31;;;;;;;26.73;16.92;;;;;;;17.01;100.00;101775.16;5066520;28;20049;-80
2023/06/25 01:35:56;;;;;;;28.73;16.55;;;;;;;16.99;100.00;101769.00;5076066;28;20025;-80
2023/06/25 01:38:21;;;;;;;31.42;19.38;;;;;;;16.99;100.00;101766.28;5055573;28;20392;-80
2023/06/25 01:40:47;;;;;;;28.92;16.67;;;;;;;16.99;100.00;101769.00;5083027;28;20476;-80
2023/06/25 01:43:12;;;;;;;27.23;15.82;;;;;;;16.97;100.00;101764.69;5063134;28;20104;-80
2023/06/25 01:45:38;;;;;;;26.42;16.35;;;;;;;16.93;100.00;101764.13;5075533;28;20263;-80
2023/06/25 01:48:04;;;;;;;28.10;16.67;;;;;;;16.91;100.00;101758.81;5075392;28;20033;-80
2023/06/25 01:50:29;;;;;;;27.00;16.17;;;;;;;16.89;100.00;101754.50;5057747;28;20039;-81
2023/06/25 01:52:54;;;;;;;25.83;15.95;;;;;;;16.85;100.00;101747.56;5080201;28;20028;-80
2023/06/25 01:55:19;;;;;;;31.88;15.98;;;;;;;16.85;100.00;101753.88;5080937;28;20028;-80
2023/06/25 01:57:45;;;;;;;27.85;16.02;;;;;;;16.84;100.00;101748.56;5074792;28;20028;-80
2023/06/25 02:00:11;;;;;;;27.42;15.45;;;;;;;16.82;100.00;101748.69;5066961;28;20165;-80
2023/06/25 02:02:37;;;;;;;24.75;13.75;;;;;;;16.81;100.00;101749.72;5058093;28;20060;-80
2023/06/25 02:05:02;;;;;;;26.50;13.98;;;;;;;16.77;100.00;101746.38;5076787;28;20161;-80
2023/06/25 02:07:28;;;;;;;26.00;14.85;;;;;;;16.75;100.00;101745.66;5058516;28;20039;-80
2023/06/25 02:09:53;;;;;;;28.00;16.17;;;;;;;16.73;100.00;101735.91;5062162;28;20071;-79
2023/06/25 02:12:19;;;;;;;25.20;15.68;;;;;;;16.72;100.00;101734.19;5070037;28;20089;-80
2023/06/25 02:14:44;;;;;;;26.15;15.05;;;;;;;16.69;100.00;101729.91;5063804;28;20024;-80
2023/06/25 02:17:09;;;;;;;25.70;15.18;;;;;;;16.67;100.00;101731.88;5073703;28;20508;-80
2023/06/25 02:19:35;;;;;;;25.23;14.85;;;;;;;16.67;100.00;101725.59;5079911;28;20075;-80
2023/06/25 02:22:00;;;;;;;24.25;13.82;;;;;;;16.65;100.00;101717.56;5055977;28;20408;-80
2023/06/25 02:24:26;;;;;;;24.75;13.85;;;;;;;16.63;100.00;101724.13;5081698;28;20388;-80
2023/06/25 02:26:51;;;;;;;26.25;16.15;;;;;;;16.60;100.00;101715.25;5076298;28;20435;-80
2023/06/25 02:29:17;;;;;;;29.65;15.38;;;;;;;16.61;100.00;101718.81;5058687;28;20044;-80
2023/06/25 02:31:42;;;;;;;26.40;14.75;;;;;;;16.59;100.00;101718.09;5081212;28;20107;-80
2023/06/25 02:34:07;;;;;;;25.25;14.25;;;;;;;16.57;100.00;101706.50;5064110;28;20028;-80
2023/06/25 02:36:34;;;;;;;25.50;14.45;;;;;;;16.57;100.00;101703.78;5072327;28;20125;-80
2023/06/25 02:38:59;;;;;;;26.05;16.27;;;;;;;16.57;100.00;101707.38;5061579;28;20436;-80
2023/06/25 02:41:25;;;;;;;26.02;15.20;;;;;;;16.56;100.00;101708.38;5084049;28;20103;-79
2023/06/25 02:43:50;;;;;;;25.95;13.95;;;;;;;16.54;100.00;101704.06;5059091;28;20028;-80
2023/06/25 02:46:15;;;;;;;25.23;14.77;;;;;;;16.50;100.00;101703.47;5062749;28;20469;-80
2023/06/25 02:48:42;;;;;;;24.45;14.52;;;;;;;16.49;100.00;101706.31;5072276;28;20062;-80
2023/06/25 02:51:09;;;;;;;29.02;14.40;;;;;;;16.46;100.00;101707.44;5066125;28;20020;-80
2023/06/25 02:53:34;;;;;;;26.33;15.85;;;;;;;16.46;100.00;101702.00;5082226;28;20024;-80
2023/06/25 02:55:59;;;;;;;27.13;15.48;;;;;;;16.43;100.00;101694.97;5074659;28;20024;-80
2023/06/25 02:58:25;;;;;;;26.70;15.35;;;;;;;16.44;100.00;101687.69;5063056;28;20518;-80
2023/06/25 03:00:50;;;;;;;23.73;14.05;;;;;;;16.42;100.00;101695.97;5083393;28;20116;-80
2023/06/25 03:03:15;;;;;;;26.10;13.98;;;;;;;16.40;100.00;101686.25;5062624;28;20040;-80
2023/06/25 03:05:41;;;;;;;22.58;13.57;;;;;;;16.37;100.00;101687.38;5074761;28;20484;-80
2023/06/25 03:08:06;;;;;;;23.05;13.20;;;;;;;16.35;100.00;101694.75;5059913;28;20066;-80
2023/06/25 03:10:33;;;;;;;25.08;14.63;;;;;;;16.34;100.00;101692.16;5077389;28;20081;-79
2023/06/25 03:12:58;;;;;;;25.60;15.40;;;;;;;16.34;100.00;101693.06;5060184;28;20051;-80
2023/06/25 03:15:24;;;;;;;26.05;14.63;;;;;;;16.34;100.00;101692.16;5083077;28;20467;-80
2023/06/25 03:17:49;;;;;;;25.95;14.43;;;;;;;16.33;100.00;101690.47;5076709;28;20020;-80
2023/06/25 03:20:15;;;;;;;24.70;14.10;;;;;;;16.29;100.00;101684.44;5080396;28;20029;-80
2023/06/25 03:22:40;;;;;;;27.00;14.55;;;;;;;16.27;100.00;101691.84;5074334;28;20099;-81
2023/06/25 03:25:07;;;;;;;25.98;13.88;;;;;;;16.21;100.00;101687.78;5064425;28;20464;-80
2023/06/25 03:27:33;;;;;;;26.42;14.52;;;;;;;16.21;100.00;101692.38;5057894;28;20135;-80
2023/06/25 03:29:59;;;;;;;27.70;15.20;;;;;;;16.21;100.00;101692.38;5073944;28;20039;-80
2023/06/25 03:32:24;;;;;;;25.90;15.25;;;;;;;16.19;100.00;101684.38;5056835;28;20024;-80
2023/06/25 03:34:49;;;;;;;27.30;15.48;;;;;;;16.18;100.00;101690.78;5074884;28;20444;-80
2023/06/25 03:37:15;;;;;;;27.50;16.67;;;;;;;16.15;100.00;101684.72;5071911;28;20548;-80
2023/06/25 03:39:40;;;;;;;25.58;15.70;;;;;;;16.15;100.00;101685.59;5057417;28;20116;-81
2023/06/25 03:42:05;;;;;;;24.92;14.57;;;;;;;16.11;100.00;101681.41;5079329;28;20025;-80
2023/06/25 03:44:31;;;;;;;28.20;18.00;;;;;;;16.12;100.00;101682.28;5065363;28;20402;-80
2023/06/25 03:46:56;;;;;;;29.20;18.48;;;;;;;16.12;100.00;101682.28;5074160;28;20030;-80
2023/06/25 03:49:21;;;;;;;25.73;17.42;;;;;;;16.11;100.00;101676.00;5071229;28;20028;-80
2023/06/25 03:51:47;;;;;;;29.48;17.40;;;;;;;16.11;100.00;101669.72;5076609;28;20480;-79
2023/06/25 03:54:12;;;;;;;28.52;18.23;;;;;;;16.12;100.00;101675.03;5077389;28;20050;-80
2023/06/25 03:56:37;;;;;;;29.25;18.70;;;;;;;16.14;100.00;101675.72;5073990;28;20054;-80
2023/06/25 03:59:03;;;;;;;27.33;18.38;;;;;;;16.16;100.00;101678.31;5062665;28;20451;-80
2023/06/25 04:01:28;;;;;;;28.00;17.33;;;;;;;16.18;100.00;101673.63;5079001;28;20089;-80
2023/06/25 04:03:53;;;;;;;27.27;19.20;;;;;;;16.18;100.00;101679.91;5072832;28;20090;-80
2023/06/25 04:06:19;;;;;;;29.10;17.63;;;;;;;16.20;100.00;101677.06;5060626;28;20033;-80
2023/06/25 04:08:44;;;;;;;27.77;17.67;;;;;;;16.20;100.00;101675.22;5076680;28;20525;-80
2023/06/25 04:11:10;;;;;;;30.60;18.15;;;;;;;16.19;100.00;101681.66;5066134;28;20041;-80
2023/06/25 04:13:35;;;;;;;27.27;18.38;;;;;;;16.20;100.00;101680.63;5063394;28;20062;-80
2023/06/25 04:16:00;;;;;;;30.52;19.50;;;;;;;16.22;100.00;101677.78;5057425;28;20107;-80
2023/06/25 04:18:26;;;;;;;30.02;19.80;;;;;;;16.22;100.00;101672.38;5066142;28;20443;-80
2023/06/25 04:20:51;;;;;;;31.58;21.23;;;;;;;16.21;100.00;101674.22;5064696;28;20487;-80
2023/06/25 04:23:17;;;;;;;30.60;23.98;;;;;;;16.25;100.00;101678.41;5080203;28;20039;-80
2023/06/25 04:25:43;;;;;;;33.25;23.30;;;;;;;16.28;100.00;101679.97;5061775;28;20024;-80
2023/06/25 04:28:18;;;;;;;31.98;22.52;;;;;;;16.29;100.00;101670.00;5061321;28;20106;-80
2023/06/25 04:30:43;;;;;;;34.40;23.48;;;;;;;16.31;100.00;101665.31;5051666;28;20028;-80
2023/06/25 04:33:09;;;;;;;31.70;23.33;;;;;;;16.33;100.00;101669.63;5067024;28;20047;-81
2023/06/25 04:35:34;;;;;;;29.40;22.95;;;;;;;16.34;100.00;101674.06;5059048;28;20029;-80
2023/06/25 04:37:59;;;;;;;34.05;25.92;;;;;;;16.36;100.00;101672.06;5058213;28;20123;-80
2023/06/25 04:40:25;;;;;;;33.65;26.52;;;;;;;16.39;100.00;101668.25;5066248;28;20056;-80
2023/06/25 04:42:50;;;;;;;35.15;27.02;;;;;;;16.42;100.00;101673.41;5064615;28;20483;-80
2023/06/25 04:45:16;;;;;;;34.97;28.63;;;;;;;16.45;100.00;101672.28;5077774;28;20448;-80
2023/06/25 04:47:41;;;;;;;32.30;27.23;;;;;;;16.47;100.00;101671.19;5057576;28;20499;-80
2023/06/25 04:50:07;;;;;;;34.67;29.52;;;;;;;16.50;100.00;101672.75;5072563;28;20476;-80
2023/06/25 04:52:32;;;;;;;36.90;32.53;;;;;;;16.55;100.00;101679.50;5074696;28;20464;-80
2023/06/25 04:54:58;;;;;;;39.88;34.80;;;;;;;16.60;100.00;101676.38;5067817;28;20024;-80
2023/06/25 04:57:23;;;;;;;39.72;32.35;;;;;;;16.63;100.00;101673.41;5062574;28;20027;-80
2023/06/25 04:59:49;;;;;;;38.08;33.95;;;;;;;16.68;100.00;101673.03;5064205;28;20031;-79
2023/06/25 05:02:14;;;;;;;39.40;35.30;;;;;;;16.72;100.00;101669.91;5071596;28;20041;-80
2023/06/25 05:04:39;;;;;;;42.30;37.60;;;;;;;16.78;100.00;101671.25;5065986;28;20390;-80
2023/06/25 05:07:05;;;;;;;41.78;37.45;;;;;;;16.86;100.00;101667.84;5058286;28;20020;-80
2023/06/25 05:09:30;;;;;;;41.97;37.63;;;;;;;16.91;100.00;101674.66;5057088;28;20037;-80
2023/06/25 05:11:56;;;;;;;45.85;41.35;;;;;;;16.98;100.00;101660.53;5072603;28;20048;-80
2023/06/25 05:14:21;;;;;;;49.67;44.33;;;;;;;17.05;100.00;101665.28;5083265;28;20484;-80
2023/06/25 05:16:46;;;;;;;48.38;43.58;;;;;;;17.10;100.00;101665.75;5082144;28;20099;-79
2023/06/25 05:19:12;;;;;;;46.78;41.85;;;;;;;17.14;100.00;101671.75;5064836;28;20438;-80
2023/06/25 05:21:37;;;;;;;45.67;41.03;;;;;;;17.17;100.00;101668.75;5075863;28;20027;-80
2023/06/25 05:24:03;;;;;;;43.30;38.83;;;;;;;17.20;100.00;101673.91;5063355;28;20051;-80
2023/06/25 05:26:29;;;;;;;41.92;37.53;;;;;;;17.24;100.00;101669.09;5059152;28;20028;-80
2023/06/25 05:28:55;;;;;;;42.50;38.22;;;;;;;17.26;100.00;101672.50;5085712;28;20024;-80
2023/06/25 05:31:20;;;;;;;40.72;36.53;;;;;;;17.30;100.00;101671.25;5059368;28;20052;-80
2023/06/25 05:33:46;;;;;;;43.78;39.25;;;;;;;17.34;100.00;101675.41;5078048;28;20031;-80
2023/06/25 05:36:15;;;;;;;40.80;36.03;;;;;;;17.38;100.00;101671.44;5063458;28;20475;-78
2023/06/25 05:38:41;;;;;;;41.67;37.47;;;;;;;17.43;100.00;101668.31;5077387;28;20020;-80
2023/06/25 05:41:06;;;;;;;43.50;38.88;;;;;;;17.45;100.00;101661.75;5063710;28;20032;-80
2023/06/25 05:43:31;;;;;;;40.75;36.47;;;;;;;17.48;100.00;101666.03;5083492;28;20086;-80
2023/06/25 05:45:57;;;;;;;41.85;37.38;;;;;;;17.52;100.00;101662.03;5080462;28;20033;-79
2023/06/25 05:48:22;;;;;;;40.42;36.22;;;;;;;17.58;100.00;101663.34;5075305;28;20492;-81
2023/06/25 05:50:47;;;;;;;40.15;35.95;;;;;;;17.61;100.00;101661.22;5067213;28;20052;-79
2023/06/25 05:53:13;;;;;;;39.22;34.97;;;;;;;17.66;100.00;101658.09;5093866;28;20035;-80
2023/06/25 05:55:38;;;;;;;46.20;34.55;;;;;;;17.73;100.00;101651.09;5075003;28;20060;-79
2023/06/25 05:58:03;;;;;;;40.33;32.15;;;;;;;17.80;100.00;101651.38;5066960;28;20165;-79
2023/06/25 06:00:29;;;;;;;35.88;28.08;;;;;;;17.89;100.00;101655.09;5059512;28;20025;-81
2023/06/25 06:02:54;;;;;;;33.88;28.23;;;;;;;17.95;100.00;101654.56;5071325;28;20048;-79
2023/06/25 06:05:20;;;;;;;35.25;28.67;;;;;;;18.03;100.00;101649.28;5072815;28;20033;-78
2023/06/25 06:07:45;;;;;;;33.78;28.05;;;;;;;18.09;100.00;101658.75;5064873;28;20088;-79
2023/06/25 06:10:14;;;;;;;31.55;26.67;;;;;;;18.14;100.00;101651.88;5069855;28;20032;-79
2023/06/25 06:12:39;;;;;;;33.95;28.48;;;;;;;18.23;100.00;101655.63;5087941;28;20039;-79
2023/06/25 06:15:05;;;;;;;29.08;19.67;;;;;;;18.25;100.00;101658.19;5073795;28;20024;-79
2023/06/25 06:17:30;;;;;;;32.22;25.08;;;;;;;18.31;100.00;101658.47;5063103;28;20035;-79
2023/06/25 06:19:56;;;;;;;28.00;20.08;;;;;;;18.33;100.00;101664.63;5083106;28;20048;-79
2023/06/25 06:22:21;;;;;;;30.35;19.08;;;;;;;18.39;100.00;101670.50;5090972;28;20048;-79
2023/06/25 06:24:46;;;;;;;27.48;18.88;;;;;;;18.45;100.00;101664.50;5096084;28;20078;-79
2023/06/25 06:27:12;;;;;;;28.88;20.70;;;;;;;18.50;100.00;101671.19;5086964;28;20119;-79
2023/06/25 06:29:37;;;;;;;27.13;15.82;;;;;;;18.50;100.00;101668.47;5072535;28;20032;-79
2023/06/25 06:32:03;;;;;;;26.38;14.63;;;;;;;18.53;99.33;101664.63;5090116;28;20034;-79
2023/06/25 06:34:28;;;;;;;26.50;14.43;;;;;;;18.58;98.07;101669.63;5072147;28;20068;-79
2023/06/25 06:36:54;;;;;;;24.48;13.45;;;;;;;18.68;95.31;101665.91;5069208;28;20488;-79
2023/06/25 06:39:19;;;;;;;23.02;13.00;;;;;;;18.72;94.21;101663.72;5082570;28;20060;-79
2023/06/25 06:41:44;;;;;;;20.67;10.30;;;;;;;18.73;90.51;101659.13;5093830;28;20024;-79
2023/06/25 06:44:12;;;;;;;24.23;11.55;;;;;;;18.90;90.05;101658.41;5092951;28;20036;-79
2023/06/25 06:46:38;;;;;;;26.02;10.63;;;;;;;19.01;89.28;101657.38;5090081;28;20218;-79
2023/06/25 06:49:03;;;;;;;19.40;8.15;;;;;;;19.07;87.01;101654.06;5093883;28;20621;-79
2023/06/25 06:51:29;;;;;;;20.05;7.55;;;;;;;19.12;86.99;101650.88;5074511;28;20028;-79
2023/06/25 06:53:54;;;;;;;19.92;7.30;;;;;;;19.13;86.74;101650.75;5074144;28;20050;-79
2023/06/25 06:56:19;;;;;;;16.40;6.25;;;;;;;19.15;85.11;101648.75;5070834;28;20037;-79
2023/06/25 06:58:45;;;;;;;17.45;7.00;;;;;;;19.21;85.44;101645.41;5086372;28;20041;-79
2023/06/25 07:01:10;;;;;;;19.00;7.72;;;;;;;19.30;82.76;101649.09;5089378;28;20024;-79
2023/06/25 07:03:35;;;;;;;20.42;8.20;;;;;;;19.50;79.72;101649.00;5081476;28;20447;-79
2023/06/25 07:06:01;;;;;;;18.58;7.13;;;;;;;19.54;81.27;101645.81;5071561;28;20175;-79
2023/06/25 07:08:26;;;;;;;17.45;6.00;;;;;;;19.62;79.82;101641.47;5065137;28;20024;-75
2023/06/25 07:10:51;;;;;;;16.38;5.53;;;;;;;19.67;81.53;101641.88;5053428;28;20025;-75
2023/06/25 07:13:16;;;;;;;17.30;6.28;;;;;;;19.71;81.60;101643.28;5052974;28;20029;-75
2023/06/25 07:15:42;;;;;;;16.73;6.10;;;;;;;19.70;82.00;101644.28;5063426;28;20434;-75
2023/06/25 07:18:07;;;;;;;13.50;5.43;;;;;;;19.78;81.30;101646.25;5072618;28;20103;-74
2023/06/25 07:20:32;;;;;;;15.35;5.32;;;;;;;19.82;81.49;101643.09;5054022;28;20057;-74
2023/06/25 07:22:58;;;;;;;15.98;5.88;;;;;;;19.85;81.60;101642.78;5061867;28;20506;-74
2023/06/25 07:25:23;;;;;;;17.80;6.00;;;;;;;19.87;81.83;101646.22;5056726;28;20044;-77
2023/06/25 07:27:48;;;;;;;17.58;5.97;;;;;;;19.92;81.91;101642.19;5082374;28;20031;-74
2023/06/25 07:30:14;;;;;;;16.85;5.40;;;;;;;20.01;82.97;101642.09;5083019;28;20031;-74
2023/06/25 07:32:39;;;;;;;14.48;5.88;;;;;;;20.05;81.44;101639.94;5062410;28;20020;-73
2023/06/25 07:35:05;;;;;;;16.05;5.75;;;;;;;20.13;81.73;101639.13;5078887;28;20109;-74
2023/06/25 07:37:30;;;;;;;16.08;6.63;;;;;;;20.23;80.93;101631.72;5071544;28;20039;-74
2023/06/25 07:39:56;;;;;;;20.65;6.88;;;;;;;20.28;81.98;101637.59;5065214;28;20021;-75
2023/06/25 07:42:21;;;;;;;17.70;6.00;;;;;;;20.32;82.00;101636.22;5057052;28;20495;-75
2023/06/25 07:44:46;;;;;;;16.67;6.03;;;;;;;20.46;80.98;101632.09;5080486;28;20074;-74
2023/06/25 07:47:11;;;;;;;17.35;5.70;;;;;;;20.59;82.19;101635.25;5051836;28;20138;-76
2023/06/25 07:49:37;;;;;;;17.73;6.43;;;;;;;20.62;81.18;101634.09;5062388;28;20139;-76
2023/06/25 07:52:03;;;;;;;19.23;6.57;;;;;;;20.73;79.73;101628.41;5064271;28;20066;-77
2023/06/25 07:54:28;;;;;;;15.05;5.63;;;;;;;20.74;81.96;101632.00;5065073;28;20042;-77
2023/06/25 07:56:54;;;;;;;17.77;6.68;;;;;;;20.81;82.00;101627.59;5048770;28;20448;-76
2023/06/25 07:59:19;;;;;;;20.23;6.90;;;;;;;20.84;82.81;101626.44;5043400;28;20045;-75
2023/06/25 08:01:45;;;;;;;17.05;6.65;;;;;;;20.99;80.22;101626.69;5063170;28;20040;-75
2023/06/25 08:04:10;;;;;;;16.23;5.85;;;;;;;21.01;81.73;101627.38;5063011;28;20032;-76
2023/06/25 08:06:35;;;;;;;16.77;6.93;;;;;;;21.04;82.74;101616.97;5045103;28;20036;-76
2023/06/25 08:09:01;;;;;;;17.48;7.18;;;;;;;21.19;79.75;101625.41;5045276;28;20707;-75
2023/06/25 08:11:26;;;;;;;17.83;6.18;;;;;;;21.18;81.83;101623.69;5064144;28;20503;-76
2023/06/25 08:13:51;;;;;;;16.90;6.15;;;;;;;21.24;81.50;101623.03;5044138;28;20082;-75
2023/06/25 08:16:17;;;;;;;18.67;6.82;;;;;;;21.34;81.05;101620.19;5047637;28;20519;-76
2023/06/25 08:18:42;;;;;;;21.70;7.18;;;;;;;21.55;76.40;101619.75;5050099;28;20550;-76
2023/06/25 08:21:08;;;;;;;16.80;6.95;;;;;;;21.57;80.87;101619.63;5065896;28;20107;-75
2023/06/25 08:23:33;;;;;;;17.25;6.32;;;;;;;21.57;80.46;101622.38;5066297;28;20028;-73
2023/06/25 08:25:59;;;;;;;16.38;6.40;;;;;;;21.60;82.24;101620.13;5048709;28;20026;-76
2023/06/25 08:28:24;;;;;;;17.80;6.70;;;;;;;21.63;82.92;101622.53;5049838;28;20115;-76
2023/06/25 08:30:50;;;;;;;15.63;6.25;;;;;;;21.67;82.52;101611.25;5051530;28;20035;-77
2023/06/25 08:33:15;;;;;;;17.13;6.60;;;;;;;21.78;79.87;101608.22;5053738;28;20395;-76
2023/06/25 08:35:40;;;;;;;16.55;6.78;;;;;;;22.08;78.45;101608.59;5068860;28;20031;-76
2023/06/25 08:38:05;;;;;;;17.30;7.10;;;;;;;22.16;79.25;101616.81;5068263;28;20044;-77
2023/06/25 08:40:31;;;;;;;18.63;7.05;;;;;;;22.25;77.53;101610.31;5071212;28;20198;-74
2023/06/25 08:42:57;;;;;;;17.88;6.88;;;;;;;22.25;79.01;101606.72;5070808;28;20029;-76
2023/06/25 08:45:22;;;;;;;18.38;7.75;;;;;;;22.41;75.17;101608.63;5051838;28;20445;-76
2023/06/25 08:47:54;;;;;;;16.17;5.90;;;;;;;22.39;78.46;101602.44;5049327;28;20036;-77
2023/06/25 08:50:20;;;;;;;16.77;6.45;;;;;;;22.48;76.02;101605.03;5067435;28;20462;-77
2023/06/25 08:52:45;;;;;;;18.50;7.13;;;;;;;22.63;75.77;101607.91;5064720;28;20036;-77
2023/06/25 08:55:12;;;;;;;16.17;6.47;;;;;;;22.57;75.69;101605.03;5066390;28;20035;-76
2023/06/25 08:57:37;;;;;;;18.23;7.13;;;;;;;22.77;73.57;101598.13;5068247;28;20020;-77
2023/06/25 09:00:07;;;;;;;17.88;6.82;;;;;;;22.86;71.44;101604.44;5069760;28;20533;-76
2023/06/25 09:02:33;;;;;;;16.13;5.72;;;;;;;22.78;73.72;101601.72;5069684;28;20044;-77
2023/06/25 09:05:11;;;;;;;18.08;6.65;;;;;;;22.78;75.48;101609.94;5066378;28;20035;-76
2023/06/25 09:07:43;;;;;;;17.30;6.60;;;;;;;22.79;74.37;101604.28;5066542;28;20032;-75
2023/06/25 09:10:09;;;;;;;19.60;7.38;;;;;;;22.97;71.50;101592.25;5063595;28;20077;-77
2023/06/25 09:12:35;;;;;;;18.23;5.82;;;;;;;22.92;71.02;101594.69;5061176;28;20111;-76
2023/06/25 09:15:01;;;;;;;16.45;6.13;;;;;;;22.90;74.24;101594.84;5050805;28;20027;-75
2023/06/25 09:17:26;;;;;;;17.08;6.32;;;;;;;22.90;74.34;101596.72;5048080;28;20033;-76
2023/06/25 09:19:51;;;;;;;16.25;7.05;;;;;;;23.10;73.45;101583.47;5067965;28;20028;-77
2023/06/25 09:22:17;;;;;;;15.57;6.28;;;;;;;23.16;71.50;101580.03;5065241;28;20123;-75
2023/06/25 09:24:51;;;;;;;16.42;6.60;;;;;;;23.17;71.16;101587.25;5066331;28;20059;-76
2023/06/25 09:27:20;;;;;;;17.98;6.78;;;;;;;23.20;71.21;101584.13;5068807;28;20025;-76
2023/06/25 09:29:45;;;;;;;16.08;6.20;;;;;;;23.20;70.65;101576.75;5045581;28;20037;-76
2023/06/25 09:32:11;;;;;;;14.75;5.97;;;;;;;23.32;68.28;101579.97;5070598;28;20396;-76
2023/06/25 09:34:39;;;;;;;19.33;6.80;;;;;;;23.46;67.66;101583.84;5067133;28;20733;-76
2023/06/25 09:37:05;;;;;;;15.65;6.25;;;;;;;23.62;67.91;101573.78;5041407;28;20032;-75
2023/06/25 09:39:31;;;;;;;16.25;6.57;;;;;;;23.74;68.89;101581.44;5072972;28;20138;-75
2023/06/25 09:41:57;;;;;;;18.00;6.82;;;;;;;23.96;67.70;101580.81;5064553;28;20051;-80
2023/06/25 09:44:23;;;;;;;15.00;6.15;;;;;;;23.95;67.39;101576.34;5071576;28;20035;-76
2023/06/25 09:46:52;;;;;;;15.30;6.10;;;;;;;23.91;66.83;101575.88;5072388;28;20032;-76
2023/06/25 09:49:19;;;;;;;16.48;6.15;;;;;;;23.94;67.85;101578.25;5072155;28;20089;-77
2023/06/25 09:52:22;;;;;;;15.75;6.28;;;;;;;23.90;68.99;101566.78;5069063;28;20021;-77
2023/06/25 09:54:49;;;;;;;17.15;6.30;;;;;;;23.94;66.69;101564.53;5010063;28;20521;-78
2023/06/25 09:57:18;;;;;;;16.70;6.93;;;;;;;23.96;67.63;101565.19;5000990;28;20038;-79
2023/06/25 09:59:43;;;;;;;18.58;7.70;;;;;;;24.00;68.35;101563.78;4999484;28;20034;-77
2023/06/25 10:02:08;;;;;;;15.15;6.18;;;;;;;24.01;63.01;101568.25;4988919;28;20606;-76
2023/06/25 10:04:35;;;;;;;14.45;6.00;;;;;;;24.09;65.77;101559.09;5002061;28;20426;-76
2023/06/25 10:07:03;;;;;;;17.58;6.50;;;;;;;24.12;66.96;101557.88;4998390;28;20033;-78
2023/06/25 10:09:29;;;;;;;16.73;7.10;;;;;;;24.31;65.49;101562.00;5009892;28;20125;-77
2023/06/25 10:11:57;;;;;;;16.52;7.25;;;;;;;24.43;66.28;101564.06;5006292;28;20381;-77
2023/06/25 10:14:23;;;;;;;18.52;7.05;;;;;;;24.53;64.45;101554.72;4998481;28;20030;-79
2023/06/25 10:16:53;;;;;;;17.02;6.68;;;;;;;24.48;65.52;101554.41;4998302;28;20065;-75
2023/06/25 10:19:20;;;;;;;18.55;7.50;;;;;;;24.65;61.69;101555.13;4995000;28;20037;-76
2023/06/25 10:21:56;;;;;;;16.40;6.45;;;;;;;24.71;59.75;101552.47;4992246;28;20033;-75
2023/06/25 10:24:22;;;;;;;16.95;6.72;;;;;;;24.85;59.64;101548.03;4991673;28;20496;-76
2023/06/25 10:26:52;;;;;;;17.83;6.63;;;;;;;25.02;58.77;101539.56;5001454;28;20152;-76
2023/06/25 10:29:18;;;;;;;17.63;7.40;;;;;;;25.05;58.45;101542.81;5059597;28;20574;-75
2023/06/25 10:31:44;;;;;;;17.75;6.72;;;;;;;25.26;56.48;101528.25;5073766;28;20029;-75
2023/06/25 10:34:10;;;;;;;17.02;6.82;;;;;;;25.23;59.33;101545.16;5073771;28;20198;-75
2023/06/25 10:36:35;;;;;;;16.98;6.50;;;;;;;25.18;58.45;101533.84;5068296;28;20111;-77
2023/06/25 10:39:02;;;;;;;16.88;6.47;;;;;;;25.16;59.33;101532.38;5072172;28;20028;-76
2023/06/25 10:41:31;;;;;;;15.27;6.25;;;;;;;25.17;60.40;101526.66;5065727;28;20062;-80
2023/06/25 10:43:58;;;;;;;18.40;6.88;;;;;;;25.26;57.52;101519.16;5040171;28;20033;-79
2023/06/25 10:46:28;;;;;;;16.10;6.18;;;;;;;25.13;61.17;101526.19;5064308;28;20028;-80
2023/06/25 10:48:53;;;;;;;14.13;6.20;;;;;;;25.10;61.97;101523.81;5054590;28;20052;-80
2023/06/25 10:51:19;;;;;;;16.80;6.78;;;;;;;25.26;53.63;101516.41;5062564;28;20033;-84
2023/06/25 10:53:44;;;;;;;15.15;6.68;;;;;;;25.25;58.98;101515.53;5058794;28;20047;-80
2023/06/25 10:56:11;;;;;;;15.93;6.38;;;;;;;25.39;57.75;101516.56;5060987;28;20494;-80
2023/06/25 10:58:36;;;;;;;16.00;6.13;;;;;;;25.24;60.81;101510.22;5071827;28;20046;-80
2023/06/25 11:01:02;;;;;;;15.05;5.97;;;;;;;25.09;64.04;101518.50;5063320;28;20012;-80